Time;durP1;ratioP1;P1;durP2;ratioP2;P2;SDS_P1;SDS_P2;PMS_P1;PMS_P2;Temp;Humidity;BMP_temperature;BMP_pressure;BME280_temperature;BME280_humidity;BME280_pressure;Samples;Min_cycle;Max_cycle;Signal;HPM_P1;HPM_P2
2023/04/24 00:01:31;;;;;;;0.80;0.80;;;14.60;76.80;;;;;;928297;149;27340;-76
2023/04/24 00:03:59;;;;;;;1.13;1.03;;;14.60;76.70;;;;;;936940;148;27364;-76
2023/04/24 00:06:23;;;;;;;2.23;1.00;;;14.70;76.90;;;;;;936688;148;27334;-76
2023/04/24 00:08:50;;;;;;;0.93;0.87;;;14.70;76.90;;;;;;933989;149;27503;-76
2023/04/24 00:11:16;;;;;;;1.77;0.90;;;14.70;76.90;;;;;;938895;149;27334;-76
2023/04/24 00:13:43;;;;;;;4.05;1.42;;;14.70;76.80;;;;;;920394;150;27284;-76
2023/04/24 00:16:09;;;;;;;2.00;0.80;;;14.70;76.60;;;;;;910108;152;27695;-76
2023/04/24 00:18:36;;;;;;;0.87;0.70;;;14.80;76.70;;;;;;933395;149;27357;-76
2023/04/24 00:21:03;;;;;;;0.97;0.97;;;14.80;76.70;;;;;;935262;149;27342;-76
2023/04/24 00:23:29;;;;;;;0.80;0.80;;;14.80;76.70;;;;;;935388;149;27318;-76
2023/04/24 00:25:56;;;;;;;0.90;0.90;;;14.80;76.60;;;;;;939436;148;27310;-76
2023/04/24 00:28:22;;;;;;;0.73;0.70;;;14.80;76.60;;;;;;936914;148;27447;-76
2023/04/24 00:30:49;;;;;;;2.70;1.30;;;14.80;76.70;;;;;;940104;147;27309;-76
2023/04/24 00:33:15;;;;;;;0.70;0.70;;;14.80;76.90;;;;;;936997;147;27343;-76
2023/04/24 00:35:42;;;;;;;1.03;1.03;;;14.80;76.70;;;;;;949605;148;27779;-76
2023/04/24 00:38:09;;;;;;;0.87;0.50;;;14.80;76.70;;;;;;941660;148;27330;-76
2023/04/24 00:40:35;;;;;;;0.80;0.80;;;14.80;76.70;;;;;;943634;148;27369;-76
2023/04/24 00:43:02;;;;;;;0.77;0.73;;;14.80;76.40;;;;;;939327;148;27470;-76
2023/04/24 00:45:31;;;;;;;0.77;0.77;;;14.80;76.30;;;;;;937395;148;27306;-76
2023/04/24 00:47:55;;;;;;;1.20;0.88;;;14.80;77.10;;;;;;936961;148;27313;-75
2023/04/24 00:50:22;;;;;;;1.42;0.98;;;14.80;76.20;;;;;;937498;148;27467;-76
2023/04/24 00:52:48;;;;;;;1.13;0.70;;;14.80;76.20;;;;;;937086;148;27393;-76
2023/04/24 00:55:15;;;;;;;0.80;0.80;;;14.80;76.10;;;;;;935896;149;27358;-76
2023/04/24 00:57:41;;;;;;;1.53;0.80;;;14.80;76.20;;;;;;920172;150;27449;-76
2023/04/24 01:00:11;;;;;;;1.27;0.85;;;14.80;76.20;;;;;;921306;150;27449;-76
2023/04/24 01:02:35;;;;;;;0.93;0.90;;;14.80;76.20;;;;;;932837;149;27431;-76
2023/04/24 01:05:01;;;;;;;2.57;0.90;;;14.80;76.30;;;;;;940094;150;27962;-76
2023/04/24 01:07:28;;;;;;;0.70;0.70;;;14.80;76.30;;;;;;948930;147;27260;-76
2023/04/24 01:09:54;;;;;;;0.80;0.80;;;14.80;76.40;;;;;;948559;147;27417;-76
2023/04/24 01:12:21;;;;;;;0.70;0.70;;;14.80;76.30;;;;;;947657;147;27867;-76
2023/04/24 01:14:47;;;;;;;0.60;0.60;;;14.80;76.50;;;;;;948566;147;27425;-76
2023/04/24 01:17:15;;;;;;;0.90;0.70;;;14.80;76.30;;;;;;925562;150;27400;-76
2023/04/24 01:19:41;;;;;;;0.70;0.70;;;14.90;76.20;;;;;;922728;150;27430;-76
2023/04/24 01:22:13;;;;;;;0.70;0.70;;;14.90;76.20;;;;;;922419;150;27421;-76
2023/04/24 01:24:40;;;;;;;1.97;0.83;;;14.90;76.20;;;;;;937376;149;27469;-76
2023/04/24 01:27:06;;;;;;;0.62;0.62;;;14.90;76.00;;;;;;934117;149;27425;-76
2023/04/24 01:29:33;;;;;;;1.07;0.60;;;14.90;76.00;;;;;;937253;150;27291;-76
2023/04/24 01:32:00;;;;;;;1.00;0.90;;;14.90;76.00;;;;;;943726;148;27321;-76
2023/04/24 01:34:26;;;;;;;1.43;0.87;;;14.90;75.90;;;;;;937587;148;27318;-76
2023/04/24 01:36:53;;;;;;;0.97;0.87;;;14.90;76.00;;;;;;937204;148;27512;-76
2023/04/24 01:39:20;;;;;;;0.70;0.70;;;14.90;75.90;;;;;;937359;148;27354;-76
2023/04/24 01:41:46;;;;;;;0.70;0.60;;;15.00;75.90;;;;;;938436;147;27290;-76
2023/04/24 01:44:13;;;;;;;1.40;0.95;;;15.00;75.90;;;;;;935640;148;27305;-76
2023/04/24 01:46:39;;;;;;;1.07;0.60;;;15.00;76.00;;;;;;932759;149;27469;-76
2023/04/24 01:49:06;;;;;;;0.80;0.80;;;15.00;75.90;;;;;;927630;149;27357;-75
2023/04/24 01:51:32;;;;;;;0.73;0.70;;;15.00;76.00;;;;;;944389;148;27395;-76
2023/04/24 01:53:59;;;;;;;0.70;0.70;;;15.00;75.80;;;;;;928137;152;27441;-76
2023/04/24 01:56:25;;;;;;;1.10;0.77;;;15.00;75.80;;;;;;944669;149;27252;-76
2023/04/24 01:58:52;;;;;;;0.88;0.60;;;15.00;75.70;;;;;;943706;148;27869;-76
2023/04/24 02:01:19;;;;;;;3.05;0.72;;;15.00;75.70;;;;;;946029;147;27457;-76
2023/04/24 02:03:45;;;;;;;1.37;0.97;;;15.00;75.50;;;;;;943157;148;27306;-76
2023/04/24 02:06:12;;;;;;;0.60;0.57;;;15.00;75.60;;;;;;948422;147;27282;-76
2023/04/24 02:08:39;;;;;;;1.07;0.70;;;15.00;75.60;;;;;;948369;147;28146;-76
2023/04/24 02:11:05;;;;;;;1.53;0.70;;;15.00;75.60;;;;;;944011;149;27454;-76
2023/04/24 02:13:32;;;;;;;1.10;0.80;;;15.00;75.60;;;;;;943896;149;27337;-75
2023/04/24 02:16:01;;;;;;;1.10;1.00;;;15.00;76.30;;;;;;944865;149;27293;-76
2023/04/24 02:18:28;;;;;;;2.07;1.00;;;15.00;75.60;;;;;;944063;148;27302;-75
2023/04/24 02:20:54;;;;;;;1.10;0.70;;;15.00;75.60;;;;;;931464;149;27391;-76
2023/04/24 02:23:21;;;;;;;2.27;0.78;;;15.00;75.70;;;;;;936463;150;27339;-75
2023/04/24 02:25:48;;;;;;;1.15;1.07;;;15.00;75.70;;;;;;941631;149;27333;-75
2023/04/24 02:28:14;;;;;;;1.53;0.77;;;15.00;75.80;;;;;;943427;148;27258;-75
2023/04/24 02:30:41;;;;;;;1.07;1.00;;;14.90;75.90;;;;;;943664;148;27310;-73
2023/04/24 02:33:07;;;;;;;0.57;0.57;;;14.90;75.80;;;;;;940917;149;27450;-72
2023/04/24 02:35:34;;;;;;;0.73;0.60;;;14.90;75.80;;;;;;940669;149;27407;-72
2023/04/24 02:38:00;;;;;;;0.50;0.50;;;14.90;76.00;;;;;;941686;149;27302;-72
2023/04/24 02:40:27;;;;;;;0.73;0.73;;;14.90;76.20;;;;;;943579;148;27290;-73
2023/04/24 02:42:54;;;;;;;1.03;0.70;;;14.90;76.20;;;;;;943937;148;27349;-73
2023/04/24 02:45:20;;;;;;;1.47;1.10;;;14.90;76.20;;;;;;940587;149;27474;-73
2023/04/24 02:47:47;;;;;;;1.27;0.97;;;14.90;76.30;;;;;;944356;148;27403;-72
2023/04/24 02:50:13;;;;;;;1.82;0.60;;;14.90;76.40;;;;;;946849;147;27796;-72
2023/04/24 02:52:40;;;;;;;0.85;0.75;;;14.90;76.50;;;;;;947511;148;27402;-73
2023/04/24 02:55:07;;;;;;;0.97;0.70;;;14.90;76.40;;;;;;943822;148;27356;-73
2023/04/24 02:57:33;;;;;;;0.73;0.70;;;14.90;76.20;;;;;;926912;150;27437;-73
2023/04/24 03:00:00;;;;;;;0.83;0.73;;;14.90;76.90;;;;;;942054;149;27317;-73
2023/04/24 03:02:26;;;;;;;0.77;0.77;;;14.90;76.20;;;;;;944226;148;27407;-73
2023/04/24 03:04:53;;;;;;;0.73;0.60;;;14.90;77.00;;;;;;944235;148;27277;-73
2023/04/24 03:07:20;;;;;;;0.63;0.50;;;14.90;76.20;;;;;;942016;149;27369;-73
2023/04/24 03:09:46;;;;;;;1.20;0.90;;;14.90;76.20;;;;;;940400;149;27818;-73
2023/04/24 03:12:13;;;;;;;1.63;0.80;;;14.90;75.90;;;;;;944378;148;27363;-73
2023/04/24 03:14:39;;;;;;;1.30;1.20;;;14.90;76.00;;;;;;943949;148;27399;-73
2023/04/24 03:17:06;;;;;;;0.70;0.70;;;14.90;76.00;;;;;;940993;149;27381;-73
2023/04/24 03:19:32;;;;;;;2.42;0.80;;;14.90;76.10;;;;;;944223;148;27531;-74
2023/04/24 03:21:59;;;;;;;1.70;1.20;;;14.90;76.10;;;;;;938422;150;27330;-73
2023/04/24 03:24:27;;;;;;;0.80;0.80;;;14.80;76.10;;;;;;938405;150;27334;-73
2023/04/24 03:26:52;;;;;;;0.60;0.60;;;14.80;76.40;;;;;;944832;148;27399;-73
2023/04/24 03:29:19;;;;;;;1.47;1.27;;;14.80;76.30;;;;;;943438;148;27367;-73
2023/04/24 03:31:45;;;;;;;2.30;0.97;;;14.80;76.40;;;;;;941107;149;27342;-73
2023/04/24 03:34:12;;;;;;;2.00;0.90;;;14.80;76.30;;;;;;943766;148;27387;-74
2023/04/24 03:36:39;;;;;;;0.60;0.60;;;14.80;76.60;;;;;;943223;148;27254;-74
2023/04/24 03:39:05;;;;;;;1.15;0.60;;;14.80;76.40;;;;;;943978;148;27345;-74
2023/04/24 03:41:32;;;;;;;1.70;0.70;;;14.80;76.40;;;;;;928206;150;27374;-74
2023/04/24 03:43:58;;;;;;;2.00;1.00;;;14.80;76.40;;;;;;943111;148;27262;-74
2023/04/24 03:46:25;;;;;;;0.80;0.67;;;14.80;76.70;;;;;;943948;148;27389;-74
2023/04/24 03:48:52;;;;;;;2.00;0.80;;;14.80;76.60;;;;;;942237;149;27341;-73
2023/04/24 03:51:18;;;;;;;0.70;0.60;;;14.80;76.80;;;;;;936056;149;27483;-73
2023/04/24 03:53:45;;;;;;;1.73;0.93;;;14.80;77.00;;;;;;927307;151;27319;-73
2023/04/24 03:56:11;;;;;;;0.77;0.70;;;14.80;77.10;;;;;;927612;153;27348;-73
2023/04/24 03:58:38;;;;;;;1.37;0.73;;;14.80;77.50;;;;;;928299;151;27415;-73
2023/04/24 04:01:05;;;;;;;0.90;0.90;;;14.80;77.60;;;;;;927800;151;27387;-73
2023/04/24 04:03:31;;;;;;;1.77;0.80;;;14.70;77.70;;;;;;928458;152;27478;-73
2023/04/24 04:05:58;;;;;;;0.93;0.85;;;14.70;78.00;;;;;;931681;154;27328;-73
2023/04/24 04:08:24;;;;;;;1.50;0.70;;;14.70;77.80;;;;;;930698;153;27384;-73
2023/04/24 04:10:51;;;;;;;0.70;0.70;;;14.60;77.80;;;;;;941641;148;27260;-73
2023/04/24 04:13:17;;;;;;;0.83;0.83;;;14.60;77.80;;;;;;931737;151;27360;-73
2023/04/24 04:15:44;;;;;;;1.10;0.80;;;14.50;78.00;;;;;;929964;153;27361;-73
2023/04/24 04:18:11;;;;;;;0.70;0.60;;;14.50;78.20;;;;;;921956;154;27424;-73
2023/04/24 04:20:37;;;;;;;1.10;0.87;;;14.50;78.20;;;;;;943823;152;27289;-73
2023/04/24 04:23:04;;;;;;;1.23;0.70;;;14.40;78.30;;;;;;943022;151;27391;-73
2023/04/24 04:25:30;;;;;;;1.67;0.90;;;14.40;78.30;;;;;;931200;152;27356;-73
2023/04/24 04:27:59;;;;;;;0.80;0.80;;;14.30;78.80;;;;;;941392;152;27383;-73
2023/04/24 04:30:24;;;;;;;1.60;0.67;;;14.30;78.60;;;;;;925590;152;27811;-73
2023/04/24 04:32:51;;;;;;;1.30;0.90;;;14.20;78.80;;;;;;925554;151;27420;-73
2023/04/24 04:35:17;;;;;;;1.60;0.90;;;14.20;79.10;;;;;;941202;151;27348;-73
2023/04/24 04:37:44;;;;;;;1.53;0.70;;;14.20;79.30;;;;;;922957;152;27498;-73
2023/04/24 04:40:11;;;;;;;0.70;0.70;;;14.10;79.10;;;;;;928187;153;27403;-74
2023/04/24 04:42:40;;;;;;;1.83;0.97;;;14.10;79.20;;;;;;928789;152;27424;-73
2023/04/24 04:45:04;;;;;;;2.00;1.00;;;14.10;79.40;;;;;;941448;151;27373;-76
2023/04/24 04:47:31;;;;;;;1.50;0.93;;;14.00;79.60;;;;;;924050;154;27387;-76
2023/04/24 04:49:56;;;;;;;1.23;0.80;;;14.00;79.50;;;;;;940107;151;27345;-76
2023/04/24 04:52:25;;;;;;;2.17;1.10;;;13.90;79.90;;;;;;943084;148;27728;-73
2023/04/24 04:54:49;;;;;;;0.93;0.93;;;13.90;80.00;;;;;;942903;148;28183;-74
2023/04/24 04:57:16;;;;;;;1.00;1.00;;;13.80;80.00;;;;;;943410;148;27357;-73
2023/04/24 04:59:43;;;;;;;1.77;1.00;;;13.70;80.20;;;;;;947982;147;27444;-73
2023/04/24 05:02:09;;;;;;;1.17;1.07;;;13.70;80.30;;;;;;948074;147;27319;-73
2023/04/24 05:04:36;;;;;;;1.83;1.00;;;13.70;80.50;;;;;;941190;149;27390;-73
2023/04/24 05:07:02;;;;;;;0.97;0.97;;;13.70;81.20;;;;;;946472;148;27348;-73
2023/04/24 05:09:29;;;;;;;2.43;0.93;;;13.70;81.70;;;;;;928052;150;27430;-74
2023/04/24 05:11:56;;;;;;;1.70;1.17;;;13.70;82.00;;;;;;941984;149;27338;-73
2023/04/24 05:14:22;;;;;;;1.43;1.27;;;13.70;82.40;;;;;;928037;149;27448;-73
2023/04/24 05:16:49;;;;;;;1.73;1.20;;;13.80;83.00;;;;;;932865;149;27379;-73
2023/04/24 05:19:15;;;;;;;1.10;1.00;;;13.90;83.30;;;;;;943836;148;27353;-74
2023/04/24 05:21:42;;;;;;;1.67;1.20;;;14.20;84.90;;;;;;943598;148;28143;-74
2023/04/24 05:24:08;;;;;;;0.80;0.80;;;14.40;85.70;;;;;;945788;147;27349;-74
2023/04/24 05:26:35;;;;;;;0.90;0.90;;;14.80;86.00;;;;;;937858;149;27290;-74
2023/04/24 05:29:02;;;;;;;1.35;1.00;;;15.10;86.80;;;;;;940598;150;27407;-74
2023/04/24 05:31:28;;;;;;;0.70;0.70;;;15.60;86.20;;;;;;948828;148;27364;-74
2023/04/24 05:33:55;;;;;;;0.98;0.98;;;16.10;85.20;;;;;;942642;149;27403;-75
2023/04/24 05:36:21;;;;;;;0.80;0.80;;;16.70;84.00;;;;;;942660;149;27266;-75
2023/04/24 05:38:48;;;;;;;1.52;0.75;;;17.20;82.60;;;;;;953327;147;27439;-74
2023/04/24 05:41:15;;;;;;;1.75;0.93;;;17.70;81.10;;;;;;943933;148;27430;-74
2023/04/24 05:43:41;;;;;;;0.88;0.88;;;18.30;79.80;;;;;;927811;152;27383;-74
2023/04/24 05:46:08;;;;;;;0.93;0.80;;;18.80;78.10;;;;;;949312;147;27271;-74
2023/04/24 05:48:35;;;;;;;0.60;0.60;;;19.30;75.50;;;;;;927718;150;27312;-74
2023/04/24 05:51:01;;;;;;;0.80;0.80;;;19.80;74.20;;;;;;927688;150;27347;-74
2023/04/24 05:53:28;;;;;;;1.05;0.80;;;20.20;72.60;;;;;;940643;149;27513;-74
2023/04/24 05:55:54;;;;;;;0.93;0.80;;;20.60;72.10;;;;;;940343;148;27458;-74
2023/04/24 05:58:21;;;;;;;1.10;0.95;;;21.10;71.20;;;;;;927206;150;27345;-74
2023/04/24 06:00:47;;;;;;;1.05;1.00;;;21.50;69.90;;;;;;939952;150;27411;-74
2023/04/24 06:03:14;;;;;;;1.47;1.00;;;22.00;68.80;;;;;;943698;148;27414;-74
2023/04/24 06:05:40;;;;;;;1.00;1.00;;;22.40;67.80;;;;;;943883;148;27330;-74
2023/04/24 06:08:07;;;;;;;1.17;0.70;;;22.90;66.70;;;;;;944284;148;27326;-74
2023/04/24 06:10:34;;;;;;;0.70;0.70;;;23.40;66.00;;;;;;942929;148;27350;-74
2023/04/24 06:13:01;;;;;;;1.50;0.70;;;23.90;64.80;;;;;;948593;147;27299;-74
2023/04/24 06:15:30;;;;;;;0.98;0.75;;;24.30;64.10;;;;;;932237;150;27361;-75
2023/04/24 06:17:56;;;;;;;0.80;0.80;;;24.80;62.30;;;;;;935766;149;27953;-74
2023/04/24 06:20:23;;;;;;;0.95;0.90;;;25.20;60.10;;;;;;934509;149;27432;-75
2023/04/24 06:22:49;;;;;;;1.17;0.82;;;25.50;58.90;;;;;;949621;147;27348;-75
2023/04/24 06:25:16;;;;;;;1.00;0.72;;;25.80;57.10;;;;;;951364;147;27329;-75
2023/04/24 06:27:43;;;;;;;1.35;1.10;;;26.00;56.50;;;;;;944277;149;27375;-74
2023/04/24 06:30:09;;;;;;;1.00;1.00;;;26.20;55.40;;;;;;936642;150;27828;-75
2023/04/24 06:32:36;;;;;;;1.65;1.10;;;26.40;56.00;;;;;;938333;150;27473;-75
2023/04/24 06:35:02;;;;;;;0.90;0.90;;;26.70;55.20;;;;;;931252;150;27274;-75
2023/04/24 06:37:29;;;;;;;1.32;1.00;;;27.00;54.80;;;;;;943718;149;27358;-78
2023/04/24 06:39:56;;;;;;;1.95;1.72;;;27.20;53.40;;;;;;942458;148;27355;-78
2023/04/24 06:42:24;;;;;;;0.93;0.93;;;27.40;52.80;;;;;;937964;150;27462;-78
2023/04/24 06:44:49;;;;;;;0.88;0.88;;;27.50;52.30;;;;;;949490;148;27267;-79
2023/04/24 06:47:15;;;;;;;1.10;1.00;;;27.50;52.00;;;;;;932079;149;27330;-78
2023/04/24 06:49:42;;;;;;;1.30;1.20;;;27.40;51.40;;;;;;939819;150;27473;-78
2023/04/24 06:52:09;;;;;;;1.07;0.98;;;27.40;50.60;;;;;;944406;148;27330;-79
2023/04/24 06:54:35;;;;;;;1.00;1.00;;;27.20;50.50;;;;;;927933;150;27313;-78
2023/04/24 06:57:02;;;;;;;1.00;1.00;;;27.10;50.50;;;;;;939924;150;27452;-79
2023/04/24 06:59:28;;;;;;;2.05;0.98;;;27.10;50.70;;;;;;949032;148;27471;-78
2023/04/24 07:01:55;;;;;;;1.20;1.10;;;27.20;50.80;;;;;;956750;147;27296;-78
2023/04/24 07:04:22;;;;;;;2.70;1.20;;;27.30;51.10;;;;;;924291;150;27256;-79
2023/04/24 07:06:49;;;;;;;0.90;0.90;;;27.60;50.60;;;;;;943183;149;27359;-78
2023/04/24 07:09:16;;;;;;;2.45;1.50;;;27.90;50.00;;;;;;957602;147;27476;-78
2023/04/24 07:11:41;;;;;;;1.40;1.30;;;28.10;49.80;;;;;;949556;148;27330;-78
2023/04/24 07:14:08;;;;;;;1.32;1.02;;;28.20;49.40;;;;;;937041;152;27260;-79
2023/04/24 07:16:35;;;;;;;1.00;1.00;;;28.30;48.40;;;;;;925781;150;27444;-78
2023/04/24 07:19:01;;;;;;;2.00;1.80;;;28.20;47.80;;;;;;944307;148;27330;-78
2023/04/24 07:21:28;;;;;;;1.62;1.40;;;27.90;46.20;;;;;;938406;150;27444;-78
2023/04/24 07:23:54;;;;;;;1.50;1.40;;;27.50;46.00;;;;;;939379;150;27330;-78
2023/04/24 07:26:21;;;;;;;1.17;1.10;;;27.10;46.20;;;;;;939982;150;27423;-78
2023/04/24 07:28:47;;;;;;;2.17;1.35;;;26.80;46.50;;;;;;943543;148;27365;-78
2023/04/24 07:31:14;;;;;;;1.40;1.30;;;26.60;47.70;;;;;;930797;149;27420;-78
2023/04/24 07:33:41;;;;;;;1.50;1.20;;;26.60;47.60;;;;;;927111;150;27482;-79
2023/04/24 07:36:07;;;;;;;1.30;1.20;;;26.80;48.40;;;;;;943007;148;27382;-78
2023/04/24 07:38:34;;;;;;;1.00;1.00;;;27.10;49.00;;;;;;943599;148;27408;-77
2023/04/24 07:41:00;;;;;;;1.60;1.50;;;27.50;48.80;;;;;;927440;150;27385;-82
2023/04/24 07:43:27;;;;;;;2.05;1.70;;;27.80;48.80;;;;;;919286;149;36065;-74
2023/04/24 07:45:54;;;;;;;1.40;1.30;;;28.30;41.20;;;;;;941215;149;27338;-76
2023/04/24 07:48:21;;;;;;;1.12;1.12;;;28.50;45.00;;;;;;942814;148;27328;-76
2023/04/24 07:50:47;;;;;;;0.93;0.93;;;28.80;45.60;;;;;;938548;150;27344;-75
2023/04/24 07:53:13;;;;;;;1.00;1.00;;;29.00;45.60;;;;;;942804;148;27440;-76
2023/04/24 07:55:40;;;;;;;1.10;1.10;;;29.20;45.60;;;;;;937947;148;27381;-76
2023/04/24 07:58:06;;;;;;;1.55;1.07;;;29.40;45.90;;;;;;945201;148;27346;-76
2023/04/24 08:00:33;;;;;;;1.27;1.17;;;29.70;45.60;;;;;;941450;149;27326;-75
2023/04/24 08:03:00;;;;;;;1.32;1.22;;;29.80;44.70;;;;;;947637;147;27330;-76
2023/04/24 08:05:28;;;;;;;1.27;1.17;;;29.80;43.70;;;;;;947823;147;27343;-77
2023/04/24 08:07:53;;;;;;;1.25;1.15;;;29.70;43.40;;;;;;943220;149;27464;-76
2023/04/24 08:10:19;;;;;;;1.00;1.00;;;29.50;43.70;;;;;;926195;150;27426;-78
2023/04/24 08:12:46;;;;;;;1.85;1.22;;;29.50;44.00;;;;;;930966;150;27348;-76
2023/04/24 08:15:13;;;;;;;1.40;1.30;;;29.70;44.30;;;;;;939688;150;27441;-76
2023/04/24 08:17:40;;;;;;;1.22;1.17;;;29.90;44.50;;;;;;927561;150;27771;-77
2023/04/24 08:20:10;;;;;;;1.55;1.20;;;30.20;44.20;;;;;;927756;150;27394;-74
2023/04/24 08:22:33;;;;;;;2.70;1.10;;;30.40;44.00;;;;;;942507;149;27440;-76
2023/04/24 08:24:59;;;;;;;1.05;0.95;;;30.60;43.70;;;;;;944056;147;27277;-75
2023/04/24 08:27:26;;;;;;;0.93;0.93;;;30.60;42.30;;;;;;936767;149;27362;-76
2023/04/24 08:29:55;;;;;;;1.40;1.00;;;30.50;41.80;;;;;;941434;149;27333;-76
2023/04/24 08:32:22;;;;;;;1.27;1.17;;;30.30;41.10;;;;;;939985;148;27339;-76
2023/04/24 08:34:48;;;;;;;1.30;1.00;;;29.90;40.40;;;;;;950876;148;27258;-76
2023/04/24 08:37:15;;;;;;;0.98;0.98;;;29.30;39.80;;;;;;948833;148;27358;-76
2023/04/24 08:39:41;;;;;;;1.20;1.12;;;28.60;39.20;;;;;;942903;148;27326;-76
2023/04/24 08:42:08;;;;;;;1.05;0.90;;;27.80;39.60;;;;;;947733;147;27325;-76
2023/04/24 08:44:35;;;;;;;0.90;0.90;;;27.10;40.00;;;;;;924070;151;27391;-75
2023/04/24 08:47:04;;;;;;;1.17;1.12;;;26.30;40.20;;;;;;935807;153;27707;-76
2023/04/24 08:49:30;;;;;;;1.10;1.10;;;25.70;40.60;;;;;;916762;153;27457;-76
2023/04/24 08:51:57;;;;;;;0.80;0.80;;;25.20;41.60;;;;;;925358;150;27455;-75
2023/04/24 08:54:24;;;;;;;1.35;1.00;;;25.00;43.20;;;;;;943799;148;27291;-76
2023/04/24 08:56:50;;;;;;;0.90;0.90;;;25.00;44.30;;;;;;933809;149;27432;-76
2023/04/24 08:59:17;;;;;;;1.12;1.07;;;25.10;44.30;;;;;;944248;149;27385;-76
2023/04/24 09:01:43;;;;;;;1.27;1.17;;;25.20;43.70;;;;;;949970;147;27337;-76
2023/04/24 09:04:11;;;;;;;0.90;0.90;;;25.20;43.00;;;;;;940064;149;27339;-76
2023/04/24 09:06:37;;;;;;;1.67;1.12;;;25.00;42.60;;;;;;943638;148;27317;-76
2023/04/24 09:09:03;;;;;;;0.90;0.90;;;24.60;42.20;;;;;;946131;147;27449;-75
2023/04/24 09:11:30;;;;;;;1.20;1.10;;;24.20;42.30;;;;;;943618;149;27401;-75
2023/04/24 09:13:56;;;;;;;1.62;1.12;;;23.80;42.50;;;;;;942486;149;27391;-76
2023/04/24 09:16:24;;;;;;;1.32;1.30;;;23.40;42.60;;;;;;942518;149;27368;-76
2023/04/24 09:18:50;;;;;;;1.25;1.15;;;22.90;42.80;;;;;;943284;149;27326;-75
2023/04/24 09:21:16;;;;;;;1.25;1.25;;;22.40;43.10;;;;;;944284;148;27484;-75
2023/04/24 09:23:43;;;;;;;1.20;1.20;;;21.90;43.60;;;;;;927378;150;27363;-75
2023/04/24 09:26:09;;;;;;;1.40;1.30;;;21.50;44.00;;;;;;937489;150;27338;-75
2023/04/24 09:28:36;;;;;;;1.30;1.12;;;21.10;44.60;;;;;;925263;150;27470;-76
2023/04/24 09:31:17;;;;;;;2.87;1.30;;;20.80;45.10;;;;;;940477;149;27317;-76
2023/04/24 09:33:41;;;;;;;1.50;1.35;;;20.50;45.50;;;;;;939644;149;27373;-76
2023/04/24 09:36:08;;;;;;;1.57;1.47;;;20.20;45.80;;;;;;938092;149;27356;-75
2023/04/24 09:38:34;;;;;;;1.40;1.30;;;20.00;46.20;;;;;;940933;149;27434;-76
2023/04/24 09:41:04;;;;;;;1.30;1.20;;;19.80;46.80;;;;;;940066;149;27322;-75
2023/04/24 09:43:30;;;;;;;1.42;1.32;;;19.60;47.20;;;;;;940738;149;27413;-75
2023/04/24 09:45:57;;;;;;;1.90;1.32;;;19.60;47.70;;;;;;943115;148;27320;-75
2023/04/24 09:48:32;;;;;;;1.60;1.50;;;19.60;48.00;;;;;;924966;151;27313;-75
2023/04/24 09:50:59;;;;;;;1.32;1.20;;;19.60;48.20;;;;;;922850;150;27343;-75
2023/04/24 09:53:26;;;;;;;1.20;1.20;;;19.60;48.70;;;;;;927827;150;27375;-76
2023/04/24 09:55:52;;;;;;;1.57;1.47;;;19.60;48.10;;;;;;927618;150;27339;-75
2023/04/24 09:58:18;;;;;;;1.05;0.98;;;19.60;48.20;;;;;;925419;150;27490;-75
2023/04/24 10:00:45;;;;;;;2.55;1.20;;;19.60;48.20;;;;;;925066;154;27363;-76
2023/04/24 10:03:12;;;;;;;1.87;1.10;;;19.60;48.20;;;;;;922227;154;27347;-75
2023/04/24 10:05:43;;;;;;;1.35;1.25;;;19.60;48.20;;;;;;926065;154;27455;-77
2023/04/24 10:08:07;;;;;;;1.52;1.10;;;19.60;48.20;;;;;;941019;151;27411;-77
2023/04/24 10:10:34;;;;;;;1.37;1.17;;;19.50;48.30;;;;;;924964;151;27327;-75
2023/04/24 10:13:01;;;;;;;1.10;1.02;;;19.50;48.30;;;;;;941147;151;27343;-77
2023/04/24 10:15:27;;;;;;;1.12;1.10;;;19.40;48.40;;;;;;941588;151;27326;-77
2023/04/24 10:17:54;;;;;;;1.30;1.20;;;19.30;48.40;;;;;;941183;149;27381;-77
2023/04/24 10:20:20;;;;;;;1.20;1.10;;;19.20;48.50;;;;;;929982;151;27254;-77
2023/04/24 10:22:52;;;;;;;1.07;0.98;;;19.20;48.70;;;;;;940701;151;27353;-77
2023/04/24 10:25:19;;;;;;;0.70;0.70;;;19.10;49.00;;;;;;941690;149;27301;-77
2023/04/24 10:27:45;;;;;;;1.25;1.15;;;19.20;49.30;;;;;;940712;149;27406;-77
2023/04/24 10:30:12;;;;;;;1.37;0.82;;;19.20;49.40;;;;;;942059;152;27333;-77
2023/04/24 10:32:39;;;;;;;1.40;1.00;;;19.30;49.60;;;;;;941005;149;27357;-77
2023/04/24 10:35:05;;;;;;;5.12;1.00;;;19.40;49.70;;;;;;925385;153;27426;-77
2023/04/24 10:37:32;;;;;;;2.10;1.52;;;19.50;49.60;;;;;;928938;153;27899;-77
2023/04/24 10:39:58;;;;;;;1.05;1.05;;;19.50;49.50;;;;;;927560;152;27388;-77
2023/04/24 10:42:25;;;;;;;3.45;1.02;;;19.60;49.50;;;;;;928442;151;27381;-77
2023/04/24 10:44:52;;;;;;;0.98;0.98;;;19.60;49.30;;;;;;926205;154;27936;-77
2023/04/24 10:47:18;;;;;;;1.45;1.35;;;19.60;49.00;;;;;;942405;151;27399;-77
2023/04/24 10:49:45;;;;;;;1.42;1.20;;;19.50;48.90;;;;;;941236;149;27375;-77
2023/04/24 10:52:12;;;;;;;1.75;0.80;;;19.30;48.90;;;;;;928415;152;27307;-77
2023/04/24 10:54:41;;;;;;;1.62;1.02;;;19.10;49.10;;;;;;943438;149;27434;-77
2023/04/24 10:57:22;;;;;;;1.37;1.30;;;18.90;49.40;;;;;;943179;149;27409;-77
2023/04/24 10:59:52;;;;;;;1.20;1.20;;;18.70;49.60;;;;;;941099;149;27423;-77
2023/04/24 11:02:18;;;;;;;2.17;1.98;;;18.50;49.70;;;;;;922433;154;27362;-77
2023/04/24 11:04:46;;;;;;;1.45;1.35;;;18.30;50.00;;;;;;927415;153;27358;-77
2023/04/24 11:07:11;;;;;;;1.55;1.45;;;18.10;50.20;;;;;;939049;151;27493;-77
2023/04/24 11:09:40;;;;;;;1.42;1.32;;;17.90;50.60;;;;;;944818;151;27325;-77
2023/04/24 11:12:08;;;;;;;1.45;1.35;;;17.80;51.00;;;;;;928642;153;27485;-77
2023/04/24 11:14:55;;;;;;;1.42;1.32;;;17.70;51.40;;;;;;941162;149;27859;-77
2023/04/24 11:17:31;;;;;;;1.50;1.40;;;17.70;51.80;;;;;;916185;152;27364;-77
2023/04/24 11:20:05;;;;;;;4.83;1.70;;;17.70;52.00;;;;;;922965;152;27434;-77
2023/04/24 11:22:30;;;;;;;1.45;1.30;;;17.80;52.50;;;;;;918386;152;27295;-77
2023/04/24 11:24:56;;;;;;;1.50;1.20;;;17.90;52.70;;;;;;917233;152;27367;-77
2023/04/24 11:27:24;;;;;;;1.05;0.95;;;17.90;52.80;;;;;;928791;150;27360;-77
2023/04/24 11:29:50;;;;;;;1.02;0.98;;;17.80;53.30;;;;;;927534;153;27373;-77
2023/04/24 11:32:19;;;;;;;1.27;1.00;;;17.70;53.40;;;;;;927656;151;27335;-77
2023/04/24 11:34:45;;;;;;;1.12;1.05;;;17.60;53.70;;;;;;942282;149;27337;-77
2023/04/24 11:37:12;;;;;;;0.93;0.93;;;17.50;54.40;;;;;;940390;149;27791;-77
2023/04/24 11:39:39;;;;;;;1.20;1.20;;;17.50;55.20;;;;;;915628;151;27313;-77
2023/04/24 11:42:06;;;;;;;1.30;1.25;;;17.50;55.90;;;;;;926945;153;27349;-76
2023/04/24 11:44:32;;;;;;;1.42;1.32;;;17.60;56.10;;;;;;944393;151;27308;-77
2023/04/24 11:46:58;;;;;;;1.10;1.10;;;17.70;56.30;;;;;;943041;151;27337;-77
2023/04/24 11:49:25;;;;;;;0.70;0.70;;;17.80;56.30;;;;;;926385;153;27967;-76
2023/04/24 11:51:51;;;;;;;0.68;0.68;;;18.00;56.00;;;;;;944188;151;27337;-77
2023/04/24 11:54:18;;;;;;;0.80;0.80;;;18.20;55.90;;;;;;943890;151;27738;-77
2023/04/24 11:56:47;;;;;;;0.60;0.60;;;18.40;55.80;;;;;;931146;154;27452;-77
2023/04/24 11:59:14;;;;;;;0.60;0.60;;;18.50;55.50;;;;;;943164;148;27373;-77
2023/04/24 12:01:44;;;;;;;0.62;0.57;;;18.70;55.30;;;;;;930452;151;27286;-77
2023/04/24 12:04:10;;;;;;;0.72;0.72;;;18.90;55.00;;;;;;927742;153;27492;-77
2023/04/24 12:06:37;;;;;;;0.80;0.80;;;19.10;54.60;;;;;;942249;151;27357;-77
2023/04/24 12:09:03;;;;;;;0.82;0.82;;;19.20;54.30;;;;;;941589;152;27385;-77
2023/04/24 12:11:30;;;;;;;0.70;0.70;;;19.30;54.10;;;;;;940488;151;27320;-77
2023/04/24 12:13:56;;;;;;;0.62;0.57;;;19.40;53.90;;;;;;940967;149;27359;-77
2023/04/24 12:16:23;;;;;;;0.68;0.68;;;19.50;53.60;;;;;;941464;149;27352;-77
2023/04/24 12:18:49;;;;;;;0.70;0.70;;;19.50;53.40;;;;;;928451;152;27341;-77
2023/04/24 12:21:19;;;;;;;0.80;0.80;;;19.50;53.20;;;;;;930786;151;27315;-77
2023/04/24 12:23:46;;;;;;;0.60;0.60;;;19.50;53.10;;;;;;928532;151;27357;-77
2023/04/24 12:26:18;;;;;;;0.60;0.60;;;19.60;53.00;;;;;;927235;153;27343;-77
2023/04/24 12:28:45;;;;;;;0.40;0.40;;;19.50;52.80;;;;;;929571;153;27371;-77
2023/04/24 12:31:11;;;;;;;0.60;0.60;;;19.40;52.70;;;;;;930810;153;27424;-78
2023/04/24 12:33:38;;;;;;;0.30;0.30;;;19.30;52.80;;;;;;942412;151;27730;-78
2023/04/24 12:36:06;;;;;;;0.50;0.50;;;19.30;53.00;;;;;;940952;149;27314;-78
2023/04/24 12:38:39;;;;;;;0.70;0.70;;;19.20;53.20;;;;;;928398;153;27361;-78
2023/04/24 12:41:07;;;;;;;0.75;0.75;;;19.20;53.30;;;;;;928745;154;27838;-78
2023/04/24 12:43:33;;;;;;;0.78;0.78;;;19.10;53.20;;;;;;918556;152;27436;-78
2023/04/24 12:46:00;;;;;;;1.80;0.93;;;19.00;53.10;;;;;;934272;151;27395;-78